Irvington, NY

4:41 PM EDT on May 25, 2015 (GMT -0400)
Westchester County | | Change Station
CLOSE
Current Station
Airport
Location: White Plains,
Elevation: 436 ft
Nearby Weather Stations

Elev 436 ft 41.06 °N, 73.70 °W | Updated 45 minutes ago

Clear
Clear
80 °F
Feels Like 81 °F
N
10
Wind Variable Wind from South
Gusts 21 mph

Today
High -- | Low -- °F
--% Chance of Precip.
Yesterday
High -- | Low -- °F
Precip. -- in
5:29 AM 8:15 PM
First Quarter, 51% visible
Pressure 30.17 in
Visibility 10.0 miles
Clouds Clear
Heat Index 81 °F
Dew Point 58 °F
Humidity 47%
Rainfall 0.00 in
Snow Depth Not available.
UV 7 out of 12
Pollen 9.40 out of 12
Air Quality Not available.
Flu Activity Widespread
METAR KHPN 251956Z 18009G18KT 10SM CLR 27/14 A3018 RMK AO2 SLP216 T02670144

More Conditions Fewer Conditions

Pressure 30.17 in
Visibility 10.0 miles
Clouds Clear
Heat Index 81 °F
Dew Point 58 °F
Humidity 47%
Rainfall 0.00 in
Snow Depth Not available.
UV 7 out of 12
Pollen 9.40 out of 12
Air Quality Not available.
Flu Activity Widespread
METAR KHPN 251956Z 18009G18KT 10SM CLR 27/14 A3018 RMK AO2 SLP216 T02670144

More Conditions Fewer Conditions

10-Day Weather Forecast

Almanac

Astronomy

May. 25, 2015 Rise Set
Actual Time
Civil Twilight
Nautical Twilight
Astronomical Twilight
Moon
Length of Visible Light
Length of Day
Tomorrow will be .
, % of the Moon is Illuminated

Today's Extremes

State Highs State Lows

Community

WunderPhotos

Upload Photos

1,824,127 photos uploaded!

WunderBlogs® & News

Nearby

Air Quality

  Air Quality AQ Index Pollutant
Not available.

Snow Depth

Station Depth Elevation

Earthquake Activity

City Distance Mag. Time & Date
Minimum magnitude displayed is 2.5.

Coastal Water Temperatures

Place Temperature

Stations

Nearby Weather Stations

Station Location Temp. Windchill Dew Point Humidity Wind Precip. Elev Updated Type